createdAt,value
2018-09-08T00:01:18.947Z,90.34
2018-09-08T00:03:57.223Z,90.79
2018-09-08T00:06:31.456Z,89.56
2018-09-08T00:09:07.772Z,90.17
2018-09-08T00:11:39.087Z,90.74
2018-09-08T00:14:16.086Z,90.42
2018-09-08T00:16:53.412Z,90.76
2018-09-08T00:19:30.744Z,90.64
2018-09-08T00:22:27.630Z,91.14
2018-09-08T00:25:07.337Z,91.47
2018-09-08T00:27:45.716Z,92.00
2018-09-08T00:30:22.234Z,90.99
2018-09-08T00:32:56.227Z,91.10
2018-09-08T00:35:32.654Z,91.84
2018-09-08T00:38:06.372Z,90.60
2018-09-08T00:40:36.225Z,90.59
2018-09-08T00:43:07.601Z,90.04
2018-09-08T00:45:56.058Z,90.26
2018-09-08T00:48:28.106Z,89.33
2018-09-08T00:51:00.499Z,88.77
2018-09-08T00:53:41.774Z,88.32
2018-09-08T00:56:11.121Z,89.42
2018-09-08T01:01:32.112Z,88.35
2018-09-08T01:04:37.751Z,88.44
2018-09-08T01:07:17.208Z,89.58
2018-09-08T01:09:58.128Z,89.55
2018-09-08T01:12:39.368Z,89.91
2018-09-08T01:15:12.164Z,90.10
2018-09-08T01:17:43.447Z,89.91
2018-09-08T01:20:13.440Z,88.54
2018-09-08T01:22:45.448Z,89.56
2018-09-08T01:25:18.821Z,89.79
2018-09-08T01:27:50.796Z,89.77
2018-09-08T01:30:26.019Z,90.96
2018-09-08T01:32:57.300Z,90.76
2018-09-08T01:35:27.134Z,91.39
2018-09-08T01:38:04.454Z,92.08
2018-09-08T01:40:35.588Z,91.42
2018-09-08T01:43:10.285Z,91.04
2018-09-08T01:45:40.392Z,91.14
2018-09-08T01:48:12.096Z,91.50
2018-09-08T01:50:41.671Z,90.90
2018-09-08T01:53:15.597Z,92.67
2018-09-08T01:55:50.576Z,92.47
2018-09-08T01:58:23.959Z,93.13
2018-09-08T02:00:55.288Z,93.36
2018-09-08T02:03:30.890Z,93.00
2018-09-08T02:06:01.641Z,92.93
2018-09-08T02:08:48.304Z,93.44
2018-09-08T02:11:23.106Z,93.91
2018-09-08T02:13:54.658Z,93.75
2018-09-08T02:16:26.662Z,93.38
2018-09-08T02:18:59.176Z,93.30
2018-09-08T02:21:29.284Z,94.25
2018-09-08T02:24:01.445Z,93.78
2018-09-08T02:26:33.885Z,93.55
2018-09-08T02:29:12.915Z,94.36
2018-09-08T02:31:44.124Z,93.83
2018-09-08T02:34:15.921Z,94.09
2018-09-08T02:36:46.954Z,93.58
2018-09-08T02:39:25.436Z,93.74
2018-09-08T02:41:59.999Z,94.07
2018-09-08T02:44:30.960Z,95.20
2018-09-08T02:47:02.903Z,94.11
2018-09-08T02:50:42.125Z,94.44
2018-09-08T02:53:15.237Z,94.73
2018-09-08T02:55:47.393Z,93.69
2018-09-08T02:58:20.292Z,94.84
2018-09-08T03:00:51.115Z,95.39
2018-09-08T03:03:21.642Z,94.54
2018-09-08T03:05:49.639Z,93.55
2018-09-08T03:08:17.935Z,93.77
2018-09-08T03:10:46.326Z,93.59
2018-09-08T03:13:14.125Z,93.05
2018-09-08T03:15:42.492Z,93.22
2018-09-08T03:18:10.276Z,92.86
2018-09-08T03:20:38.060Z,92.12
2018-09-08T03:23:06.046Z,92.02
2018-09-08T03:25:36.127Z,91.50
2018-09-08T03:28:06.284Z,90.99
2018-09-08T03:30:36.327Z,92.02
2018-09-08T03:33:06.973Z,91.96
2018-09-08T03:35:34.954Z,91.27
2018-09-08T03:38:07.701Z,92.21
2018-09-08T03:40:37.022Z,92.19
2018-09-08T03:43:04.995Z,91.28
2018-09-08T03:45:34.908Z,92.22
2018-09-08T03:48:06.177Z,91.53
2018-09-08T03:50:40.772Z,91.68
2018-09-08T03:53:09.521Z,91.40
2018-09-08T03:55:38.109Z,91.65
2018-09-08T03:58:11.140Z,91.95
2018-09-08T04:00:43.849Z,89.60
2018-09-08T04:03:24.199Z,88.44
2018-09-08T04:06:00.553Z,88.45
2018-09-08T04:08:35.084Z,89.39
2018-09-08T04:11:21.343Z,88.93
2018-09-08T04:13:52.829Z,88.77
2018-09-08T04:16:27.892Z,89.69
2018-09-08T04:19:04.760Z,88.86
2018-09-08T04:21:35.889Z,88.96
2018-09-08T04:24:05.648Z,89.86
2018-09-08T04:26:36.576Z,89.52
2018-09-08T04:29:10.737Z,90.05
2018-09-08T04:31:44.215Z,89.54
2018-09-08T04:34:19.891Z,88.23
2018-09-08T04:36:49.249Z,88.27
2018-09-08T04:39:19.811Z,89.48
2018-09-08T04:41:49.223Z,89.15
2018-09-08T04:44:18.623Z,88.73
2018-09-08T04:46:48.044Z,89.41
2018-09-08T04:49:24.493Z,89.77
2018-09-08T04:52:04.249Z,89.92
2018-09-08T04:54:33.769Z,90.64
2018-09-08T04:57:08.945Z,92.10
2018-09-08T04:59:38.375Z,91.50
2018-09-08T05:02:08.002Z,91.15
2018-09-08T05:04:37.421Z,90.87
2018-09-08T05:07:06.874Z,91.38
2018-09-08T05:09:37.557Z,90.44
2018-09-08T05:12:07.023Z,91.43
2018-09-08T05:14:36.438Z,90.85
2018-09-08T05:17:06.445Z,90.76
2018-09-08T05:19:36.540Z,91.15
2018-09-08T05:22:06.289Z,91.88
2018-09-08T05:24:35.704Z,92.99
2018-09-08T05:27:05.110Z,93.24
2018-09-08T05:29:35.049Z,92.95
2018-09-08T05:32:04.441Z,91.93
2018-09-08T05:34:34.739Z,92.51
2018-09-08T05:40:07.432Z,92.28
2018-09-08T05:42:37.135Z,92.01
2018-09-08T05:45:06.994Z,92.42
2018-09-08T05:47:37.588Z,92.89
2018-09-08T05:50:07.822Z,91.61
2018-09-08T05:52:38.325Z,91.43
2018-09-08T05:55:08.327Z,90.88
2018-09-08T05:57:38.948Z,91.52
2018-09-08T06:00:09.231Z,92.97
2018-09-08T06:02:53.073Z,92.99
2018-09-08T06:05:23.451Z,94.15
2018-09-08T06:07:52.887Z,93.00
2018-09-08T06:10:23.020Z,92.56
2018-09-08T06:12:52.921Z,90.67
2018-09-08T06:15:22.651Z,91.61
2018-09-08T06:17:54.624Z,91.55
2018-09-08T06:20:24.253Z,90.83
2018-09-08T06:22:54.189Z,89.62
2018-09-08T06:25:23.594Z,88.79
2018-09-08T06:27:53.032Z,88.00
2018-09-08T06:30:22.727Z,88.61
2018-09-08T06:32:52.089Z,87.67
2018-09-08T06:35:23.222Z,86.46
2018-09-08T06:37:52.926Z,85.28
2018-09-08T06:40:23.301Z,86.77
2018-09-08T06:42:52.800Z,84.52
2018-09-08T06:45:23.075Z,84.80
2018-09-08T06:47:53.870Z,83.67
2018-09-08T06:50:23.235Z,85.19
2018-09-08T06:52:52.631Z,85.00
2018-09-08T06:55:29.348Z,81.46
2018-09-08T06:57:59.728Z,83.81
2018-09-08T07:03:13.072Z,79.64
2018-09-08T07:05:42.450Z,80.74
2018-09-08T07:08:11.903Z,78.72
2018-09-08T07:10:41.614Z,77.88
2018-09-08T07:13:11.897Z,76.86
2018-09-08T07:15:41.314Z,74.96
2018-09-08T07:18:10.769Z,74.90
2018-09-08T07:20:40.166Z,72.12
2018-09-08T07:23:09.880Z,70.83
2018-09-08T07:25:39.249Z,69.16
2018-09-08T07:28:09.257Z,60.67
2018-09-08T07:30:39.498Z,64.28
2018-09-08T07:33:09.265Z,66.65
2018-09-08T07:35:38.782Z,65.95
2018-09-08T07:38:09.093Z,65.05
2018-09-08T07:40:38.475Z,62.48
2018-09-08T07:43:09.132Z,64.97
2018-09-08T07:45:41.776Z,60.69
2018-09-08T07:48:12.555Z,59.12
2018-09-08T07:50:42.020Z,57.08
2018-09-08T07:53:12.674Z,54.82
2018-09-08T07:55:42.145Z,55.35
2018-09-08T07:58:13.046Z,55.55
2018-09-08T08:00:42.539Z,56.39
2018-09-08T08:03:11.889Z,53.72
2018-09-08T08:05:44.986Z,52.50
2018-09-08T08:08:15.172Z,54.74
2018-09-08T08:10:48.353Z,53.47
2018-09-08T08:13:18.065Z,54.31
2018-09-08T08:15:47.613Z,56.43
2018-09-08T08:18:17.933Z,56.23
2018-09-08T08:20:47.330Z,57.76
2018-09-08T08:23:17.225Z,56.84
2018-09-08T08:25:46.640Z,55.88
2018-09-08T08:28:15.985Z,54.35
2018-09-08T08:30:45.319Z,56.43
2018-09-08T08:33:14.877Z,57.10
2018-09-08T08:35:44.380Z,56.75
2018-09-08T08:38:14.284Z,57.32
2018-09-08T08:40:43.717Z,55.43
2018-09-08T08:43:13.141Z,56.24
2018-09-08T08:45:42.541Z,57.81
2018-09-08T08:48:12.500Z,54.83
2018-09-08T08:50:52.639Z,54.88
2018-09-08T08:53:33.620Z,55.36
2018-09-08T08:56:03.924Z,55.99
2018-09-08T08:58:34.496Z,55.97
2018-09-08T09:01:07.469Z,55.43
2018-09-08T09:03:37.357Z,56.37
2018-09-08T09:06:06.993Z,55.32
2018-09-08T09:08:37.492Z,53.00
2018-09-08T09:11:08.772Z,54.89
2018-09-08T09:13:39.925Z,53.80
2018-09-08T09:16:10.442Z,53.57
2018-09-08T09:18:51.245Z,54.93
2018-09-08T09:23:39.382Z,54.44
2018-09-08T09:26:08.737Z,55.94
2018-09-08T09:28:38.530Z,56.94
2018-09-08T09:31:08.694Z,58.17
2018-09-08T09:33:38.156Z,56.45
2018-09-08T09:36:07.713Z,55.01
2018-09-08T09:38:38.114Z,56.22
2018-09-08T09:41:07.980Z,55.61
2018-09-08T09:43:37.684Z,55.68
2018-09-08T09:46:07.697Z,54.17
2018-09-08T09:48:37.094Z,54.62
2018-09-08T09:51:08.733Z,54.57
2018-09-08T09:53:41.257Z,55.09
2018-09-08T09:56:16.412Z,53.16
2018-09-08T09:58:47.786Z,54.53
2018-09-08T10:01:27.282Z,55.21
2018-09-08T10:03:58.255Z,53.65
2018-09-08T10:06:30.819Z,55.75
2018-09-08T10:09:03.883Z,53.88
2018-09-08T10:11:53.130Z,52.30
2018-09-08T10:14:23.568Z,53.98
2018-09-08T10:16:53.956Z,53.32
2018-09-08T10:22:16.245Z,51.68
2018-09-08T10:24:45.595Z,53.57
2018-09-08T10:27:17.310Z,52.43
2018-09-08T10:29:53.005Z,54.23
2018-09-08T10:32:23.381Z,53.57
2018-09-08T10:35:00.312Z,52.58
2018-09-08T10:37:30.316Z,53.23
2018-09-08T10:40:00.252Z,53.49
2018-09-08T10:42:34.248Z,51.51
2018-09-08T10:45:04.556Z,51.21
2018-09-08T10:50:26.057Z,50.52
2018-09-08T10:52:55.652Z,49.80
2018-09-08T10:55:25.634Z,50.21
2018-09-08T10:58:03.651Z,50.88
2018-09-08T11:00:54.509Z,51.27
2018-09-08T11:03:28.433Z,50.56
2018-09-08T11:05:57.807Z,52.66
2018-09-08T11:08:58.320Z,52.53
2018-09-08T11:11:33.113Z,48.32
2018-09-08T11:14:04.270Z,48.81
2018-09-08T11:16:39.152Z,50.19
2018-09-08T11:19:13.715Z,49.12
2018-09-08T11:21:43.120Z,49.18
2018-09-08T11:24:16.364Z,48.58
2018-09-08T11:26:47.430Z,46.89
2018-09-08T11:29:19.656Z,50.07
2018-09-08T11:31:50.308Z,49.60
2018-09-08T11:34:21.395Z,48.02
2018-09-08T11:36:51.426Z,45.92
2018-09-08T11:39:23.009Z,47.98
2018-09-08T11:41:54.330Z,46.56
2018-09-08T11:44:24.315Z,46.57
2018-09-08T11:46:56.100Z,46.69
2018-09-08T11:49:30.987Z,47.81
2018-09-08T11:52:00.612Z,46.54
2018-09-08T11:54:32.616Z,48.25
2018-09-08T11:57:03.529Z,48.21
2018-09-08T11:59:34.936Z,47.23
2018-09-08T12:02:05.831Z,48.33
2018-09-08T12:04:37.112Z,44.15
2018-09-08T12:07:07.085Z,43.37
2018-09-08T12:09:37.263Z,44.65
2018-09-08T12:12:08.185Z,46.40
2018-09-08T12:14:38.049Z,46.88
2018-09-08T12:17:08.368Z,46.75
2018-09-08T12:19:38.826Z,46.81
2018-09-08T12:22:09.114Z,46.26
2018-09-08T12:24:42.764Z,45.17
2018-09-08T12:27:14.845Z,45.64
2018-09-08T12:29:44.186Z,45.14
2018-09-08T12:32:14.481Z,45.74
2018-09-08T12:34:44.081Z,45.06
2018-09-08T12:37:14.139Z,44.63
2018-09-08T12:39:43.497Z,45.02
2018-09-08T12:42:13.666Z,47.05
2018-09-08T12:44:43.012Z,45.02
2018-09-08T12:47:12.437Z,45.36
2018-09-08T12:49:43.008Z,44.12
2018-09-08T12:52:13.041Z,45.05
2018-09-08T12:54:42.672Z,44.74
2018-09-08T12:57:12.087Z,45.04
2018-09-08T12:59:41.971Z,45.61
2018-09-08T13:02:11.891Z,45.40
2018-09-08T13:04:42.440Z,44.95
2018-09-08T13:07:15.000Z,46.22
2018-09-08T13:09:44.357Z,44.61
2018-09-08T13:12:14.364Z,45.58
2018-09-08T13:14:45.227Z,46.59
2018-09-08T13:17:14.618Z,45.81
2018-09-08T13:19:47.320Z,44.53
2018-09-08T13:22:19.233Z,45.85
2018-09-08T13:24:53.639Z,44.58
2018-09-08T13:27:25.620Z,45.07
2018-09-08T13:29:55.457Z,45.15
2018-09-08T13:32:27.631Z,44.94
2018-09-08T13:34:57.424Z,44.43
2018-09-08T13:37:28.045Z,43.11
2018-09-08T13:39:59.269Z,43.93
2018-09-08T13:42:28.668Z,42.25
2018-09-08T13:44:59.210Z,42.38
2018-09-08T13:47:29.608Z,43.07
2018-09-08T13:49:59.193Z,43.24
2018-09-08T13:52:29.921Z,43.71
2018-09-08T13:58:08.473Z,43.39
2018-09-08T14:00:39.351Z,42.58
2018-09-08T14:03:12.333Z,43.76
2018-09-08T14:05:41.730Z,41.52
2018-09-08T14:08:16.625Z,42.49
2018-09-08T14:10:48.065Z,43.22
2018-09-08T14:13:20.276Z,43.25
2018-09-08T14:15:50.550Z,42.42
2018-09-08T14:18:20.439Z,42.43
2018-09-08T14:20:49.837Z,41.98
2018-09-08T14:23:25.105Z,42.15
2018-09-08T14:25:55.401Z,41.79
2018-09-08T14:28:29.434Z,42.17
2018-09-08T14:31:00.957Z,42.88
2018-09-08T14:33:35.645Z,41.49
2018-09-08T14:36:05.916Z,41.29
2018-09-08T14:38:39.644Z,42.31
2018-09-08T14:41:10.656Z,41.65
2018-09-08T14:43:42.078Z,41.79
2018-09-08T14:46:12.079Z,41.10
2018-09-08T14:48:41.470Z,41.46
2018-09-08T14:51:11.509Z,40.61
2018-09-08T14:53:40.942Z,41.10
2018-09-08T14:56:10.273Z,40.42
2018-09-08T14:58:39.601Z,41.33
2018-09-08T15:01:08.931Z,39.83
2018-09-08T15:03:39.383Z,39.50
2018-09-08T15:06:09.476Z,39.00
2018-09-08T15:08:39.987Z,39.18
2018-09-08T15:11:09.312Z,39.90
2018-09-08T15:13:38.781Z,39.09
2018-09-08T15:16:08.118Z,39.15
2018-09-08T15:18:37.865Z,38.71
2018-09-08T15:21:08.125Z,38.55
2018-09-08T15:23:37.480Z,38.65
2018-09-08T15:26:07.152Z,38.80
2018-09-08T15:28:37.060Z,39.59
2018-09-08T15:31:07.476Z,40.14
2018-09-08T15:33:36.861Z,39.40
2018-09-08T15:36:06.516Z,41.12
2018-09-08T15:38:35.873Z,40.04
2018-09-08T15:41:06.176Z,41.05
2018-09-08T15:43:41.422Z,40.22
2018-09-08T15:46:10.841Z,42.66
2018-09-08T15:48:40.648Z,41.40
2018-09-08T15:51:10.010Z,40.90
2018-09-08T15:53:39.700Z,41.79
2018-09-08T15:56:10.434Z,41.94
2018-09-08T15:58:40.362Z,41.69
2018-09-08T16:01:11.732Z,42.84
2018-09-08T16:03:41.071Z,42.89
2018-09-08T16:06:10.424Z,43.06
2018-09-08T16:08:41.493Z,43.73
2018-09-08T16:11:11.743Z,42.77
2018-09-08T16:13:42.659Z,42.54
2018-09-08T16:16:12.401Z,44.08
2018-09-08T16:18:41.783Z,44.24
2018-09-08T16:21:11.143Z,44.99
2018-09-08T16:23:41.897Z,45.60
2018-09-08T16:26:13.718Z,45.03
2018-09-08T16:28:48.511Z,45.34
2018-09-08T16:31:21.289Z,46.65
2018-09-08T16:33:54.820Z,48.40
2018-09-08T16:36:27.495Z,48.88
2018-09-08T16:38:57.869Z,49.28
2018-09-08T16:41:29.077Z,49.67
2018-09-08T16:44:00.333Z,50.26
2018-09-08T16:46:31.004Z,51.30
2018-09-08T16:49:01.573Z,51.27
2018-09-08T16:51:40.820Z,51.49
2018-09-08T16:54:11.213Z,51.85
2018-09-08T16:56:40.992Z,52.40
2018-09-08T16:59:10.395Z,51.93
2018-09-08T17:01:40.703Z,53.12
2018-09-08T17:04:12.155Z,53.02
2018-09-08T17:06:41.642Z,52.53
2018-09-08T17:09:11.103Z,53.73
2018-09-08T17:11:40.646Z,53.93
2018-09-08T17:14:10.080Z,54.22
2018-09-08T17:16:40.325Z,54.32
2018-09-08T17:19:11.254Z,55.19
2018-09-08T17:21:42.450Z,55.12
2018-09-08T17:24:15.831Z,55.67
2018-09-08T17:26:46.158Z,55.29
2018-09-08T17:29:17.755Z,56.02
2018-09-08T17:31:48.063Z,55.66
2018-09-08T17:34:18.261Z,55.32
2018-09-08T17:36:48.300Z,55.24
2018-09-08T17:39:17.761Z,55.29
2018-09-08T17:41:49.093Z,55.45
2018-09-08T17:44:18.969Z,55.89
2018-09-08T17:46:48.381Z,55.26
2018-09-08T17:49:23.616Z,56.20
2018-09-08T17:51:53.333Z,57.37
2018-09-08T17:54:28.181Z,56.67
2018-09-08T17:56:58.990Z,57.84
2018-09-08T17:59:29.609Z,57.33
2018-09-08T18:01:59.368Z,59.34
2018-09-08T18:04:29.137Z,58.87
2018-09-08T18:07:00.460Z,58.98
2018-09-08T18:09:31.011Z,59.81
2018-09-08T18:12:01.890Z,59.34
2018-09-08T18:14:33.089Z,60.16
2018-09-08T18:17:03.805Z,60.36
2018-09-08T18:19:35.267Z,61.18
2018-09-08T18:22:06.256Z,60.27
2018-09-08T18:24:37.733Z,60.86
2018-09-08T18:27:10.855Z,60.19
2018-09-08T18:29:40.559Z,60.36
2018-09-08T18:32:11.206Z,59.70
2018-09-08T18:34:40.593Z,61.41
2018-09-08T18:37:11.609Z,61.07
2018-09-08T18:39:40.973Z,61.56
2018-09-08T18:42:11.547Z,63.50
2018-09-08T18:44:43.708Z,62.22
2018-09-08T18:47:14.709Z,64.37
2018-09-08T18:49:45.549Z,62.92
2018-09-08T18:52:16.187Z,62.56
2018-09-08T18:54:47.352Z,64.25
2018-09-08T18:57:17.037Z,64.04
2018-09-08T18:59:51.188Z,63.65
2018-09-08T19:02:21.483Z,64.49
2018-09-08T19:04:52.108Z,64.23
2018-09-08T19:07:22.030Z,64.70
2018-09-08T19:09:57.072Z,64.77
2018-09-08T19:12:27.248Z,66.98
2018-09-08T19:15:03.446Z,66.13
2018-09-08T19:17:35.288Z,66.75
2018-09-08T19:20:11.057Z,66.89
2018-09-08T19:22:42.687Z,67.41
2018-09-08T19:25:12.808Z,66.05
2018-09-08T19:27:44.293Z,67.70
2018-09-08T19:30:14.354Z,66.61
2018-09-08T19:32:44.232Z,67.60
2018-09-08T19:35:19.934Z,68.38
2018-09-08T19:37:53.614Z,68.59
2018-09-08T19:40:30.418Z,68.46
2018-09-08T19:43:01.516Z,68.18
2018-09-08T19:45:36.240Z,69.32
2018-09-08T19:48:09.534Z,68.81
2018-09-08T19:50:39.617Z,70.08
2018-09-08T19:53:18.139Z,70.55
2018-09-08T19:55:50.965Z,69.54
2018-09-08T19:58:26.238Z,69.97
2018-09-08T20:00:56.007Z,71.08
2018-09-08T20:07:00.936Z,71.59
2018-09-08T20:09:31.746Z,71.56
2018-09-08T20:12:01.661Z,71.88
2018-09-08T20:14:31.964Z,71.18
2018-09-08T20:17:02.563Z,70.92
2018-09-08T20:19:32.666Z,71.84
2018-09-08T20:22:04.519Z,72.41
2018-09-08T20:24:34.432Z,72.38
2018-09-08T20:27:05.445Z,72.07
2018-09-08T20:29:35.317Z,72.82
2018-09-08T20:32:05.714Z,72.16
2018-09-08T20:34:37.429Z,72.02
2018-09-08T20:37:13.813Z,71.98
2018-09-08T20:39:43.508Z,71.95
2018-09-08T20:42:15.352Z,72.90
2018-09-08T20:44:45.691Z,71.90
2018-09-08T20:47:18.949Z,72.13
2018-09-08T20:49:49.677Z,73.27
2018-09-08T20:52:19.472Z,72.92
2018-09-08T20:54:49.492Z,73.23
2018-09-08T20:57:20.442Z,73.41
2018-09-08T20:59:50.999Z,72.98
2018-09-08T21:02:20.599Z,73.62
2018-09-08T21:04:51.806Z,71.73
2018-09-08T21:07:22.870Z,71.93
2018-09-08T21:09:54.285Z,72.75
2018-09-08T21:12:24.168Z,73.86
2018-09-08T21:14:56.561Z,73.61
2018-09-08T21:17:27.034Z,71.98
2018-09-08T21:19:59.977Z,72.03
2018-09-08T21:22:32.416Z,73.52
2018-09-08T21:25:03.917Z,74.20
2018-09-08T21:27:35.472Z,72.90
2018-09-08T21:30:06.486Z,72.47
2018-09-08T21:32:36.737Z,73.42
2018-09-08T21:35:06.258Z,72.10
2018-09-08T21:37:37.445Z,72.22
2018-09-08T21:40:08.724Z,73.32
2018-09-08T21:42:38.168Z,72.97
2018-09-08T21:45:08.062Z,72.83
2018-09-08T21:47:37.440Z,72.96
2018-09-08T21:50:07.523Z,73.16
2018-09-08T21:52:37.513Z,73.81
2018-09-08T21:55:07.279Z,73.99
2018-09-08T21:57:36.873Z,73.93
2018-09-08T22:00:07.153Z,73.47
2018-09-08T22:02:38.414Z,73.87
2018-09-08T22:05:08.856Z,74.11
2018-09-08T22:07:42.844Z,73.43
2018-09-08T22:10:14.314Z,73.87
2018-09-08T22:12:49.034Z,73.28
2018-09-08T22:15:18.794Z,73.83
2018-09-08T22:17:51.176Z,74.20
2018-09-08T22:20:24.519Z,73.81
2018-09-08T22:25:39.274Z,72.01
2018-09-08T22:28:09.281Z,72.96
2018-09-08T22:30:44.540Z,72.70
2018-09-08T22:33:19.529Z,73.72
2018-09-08T22:35:52.324Z,72.81
2018-09-08T22:38:22.876Z,73.70
2018-09-08T22:40:53.701Z,73.27
2018-09-08T22:43:26.232Z,74.30
2018-09-08T22:45:58.222Z,74.07
2018-09-08T22:48:29.689Z,75.05
2018-09-08T22:51:02.616Z,74.72
2018-09-08T22:53:35.075Z,75.05
2018-09-08T22:56:05.574Z,75.32
2018-09-08T22:58:34.936Z,75.97
2018-09-08T23:01:05.384Z,75.49
2018-09-08T23:03:35.038Z,75.86
2018-09-08T23:06:08.264Z,76.40
2018-09-08T23:08:40.965Z,75.89
2018-09-08T23:11:15.189Z,76.04
2018-09-08T23:13:45.572Z,75.69
2018-09-08T23:16:16.400Z,76.23
2018-09-08T23:18:48.610Z,75.71
2018-09-08T23:21:18.765Z,76.41
2018-09-08T23:23:49.091Z,76.28
2018-09-08T23:26:24.311Z,76.52
2018-09-08T23:28:57.333Z,76.91
2018-09-08T23:31:34.465Z,76.42
2018-09-08T23:34:07.529Z,77.21
2018-09-08T23:36:38.441Z,76.63
2018-09-08T23:39:09.518Z,77.13
2018-09-08T23:41:40.432Z,76.62
2018-09-08T23:44:10.317Z,76.47
2018-09-08T23:46:39.796Z,76.03
2018-09-08T23:49:09.208Z,76.86
2018-09-08T23:51:38.604Z,76.87
2018-09-08T23:54:08.017Z,77.20
2018-09-08T23:56:37.601Z,76.58
2018-09-08T23:59:06.973Z,76.71
